createdAt,value
2023-03-08T00:01:17.705Z,4.70
2023-03-08T00:03:45.461Z,4.60
2023-03-08T00:06:16.794Z,4.60
2023-03-08T00:08:44.129Z,4.60
2023-03-08T00:11:12.883Z,4.60
2023-03-08T00:13:40.340Z,4.60
2023-03-08T00:16:13.743Z,4.80
2023-03-08T00:18:41.767Z,4.70
2023-03-08T00:21:13.402Z,4.70
2023-03-08T00:23:41.459Z,4.60
2023-03-08T00:26:09.805Z,4.70
2023-03-08T00:28:36.816Z,4.90
2023-03-08T00:31:10.696Z,4.80
2023-03-08T00:33:38.003Z,4.70
2023-03-08T00:36:06.885Z,4.60
2023-03-08T00:38:36.571Z,4.60
2023-03-08T00:41:04.478Z,4.70
2023-03-08T00:43:31.892Z,4.60
2023-03-08T00:45:59.380Z,4.50
2023-03-08T00:48:26.719Z,4.70
2023-03-08T00:50:54.107Z,4.40
2023-03-08T00:53:21.495Z,4.40
2023-03-08T00:55:57.499Z,4.40
2023-03-08T00:58:27.407Z,4.50
2023-03-08T01:00:54.946Z,4.50
2023-03-08T01:03:22.236Z,4.60
2023-03-08T01:05:53.191Z,4.60
2023-03-08T01:08:22.451Z,4.70
2023-03-08T01:11:00.486Z,4.70
2023-03-08T01:13:32.924Z,4.80
2023-03-08T01:16:00.783Z,4.80
2023-03-08T01:18:28.708Z,4.80
2023-03-08T01:21:02.437Z,4.80
2023-03-08T01:23:29.902Z,4.80
2023-03-08T01:26:07.300Z,4.80
2023-03-08T01:28:35.395Z,4.80
2023-03-08T01:31:06.400Z,4.80
2023-03-08T01:33:35.327Z,4.80
2023-03-08T01:36:12.166Z,4.70
2023-03-08T01:38:39.330Z,4.80
2023-03-08T01:41:08.957Z,4.80
2023-03-08T01:43:40.246Z,4.80
2023-03-08T01:46:23.216Z,4.80
2023-03-08T01:49:16.445Z,4.80
2023-03-08T01:51:58.653Z,4.80
2023-03-08T01:54:51.753Z,4.90
2023-03-08T01:57:36.063Z,4.80
2023-03-08T02:00:10.198Z,4.90
2023-03-08T02:02:43.776Z,4.90
2023-03-08T02:05:11.755Z,4.80
2023-03-08T02:07:38.748Z,4.80
2023-03-08T02:10:06.661Z,4.90
2023-03-08T02:12:34.966Z,4.90
2023-03-08T02:15:06.261Z,4.90
2023-03-08T02:17:37.935Z,4.80
2023-03-08T02:20:24.651Z,4.80
2023-03-08T02:22:53.309Z,4.80
2023-03-08T02:25:26.748Z,4.70
2023-03-08T02:27:54.925Z,4.70
2023-03-08T02:30:30.692Z,4.70
2023-03-08T02:32:57.678Z,4.70
2023-03-08T02:35:24.995Z,4.70
2023-03-08T02:37:52.151Z,4.70
2023-03-08T02:40:19.396Z,4.60
2023-03-08T02:42:46.390Z,4.70
2023-03-08T02:45:13.538Z,4.60
2023-03-08T02:47:40.596Z,4.70
2023-03-08T02:50:08.741Z,4.60
2023-03-08T02:52:35.803Z,4.60
2023-03-08T02:55:02.912Z,4.70
2023-03-08T02:57:29.953Z,4.70
2023-03-08T02:59:57.053Z,4.70
2023-03-08T03:02:24.069Z,4.80
2023-03-08T03:04:51.065Z,4.80
2023-03-08T03:07:18.145Z,4.70
2023-03-08T03:09:45.123Z,4.70
2023-03-08T03:12:12.117Z,5.20
2023-03-08T03:14:39.162Z,4.60
2023-03-08T03:17:06.228Z,4.50
2023-03-08T03:19:33.276Z,4.60
2023-03-08T03:22:00.428Z,4.50
2023-03-08T03:24:27.455Z,4.40
2023-03-08T03:26:54.561Z,4.40
2023-03-08T03:29:21.979Z,4.70
2023-03-08T03:31:49.058Z,4.50
2023-03-08T03:34:16.189Z,4.70
2023-03-08T03:36:43.244Z,4.40
2023-03-08T03:39:10.303Z,4.50
2023-03-08T03:41:37.362Z,4.50
2023-03-08T03:44:04.828Z,4.50
2023-03-08T03:46:31.917Z,4.30
2023-03-08T03:48:59.218Z,4.30
2023-03-08T03:51:26.369Z,4.20
2023-03-08T03:53:53.402Z,4.30
2023-03-08T03:56:23.326Z,4.30
2023-03-08T03:58:51.648Z,4.20
2023-03-08T04:01:21.643Z,4.50
2023-03-08T04:03:49.494Z,3.90
2023-03-08T04:06:26.591Z,4.00
2023-03-08T04:08:56.791Z,4.00
2023-03-08T04:11:27.990Z,3.50
2023-03-08T04:13:55.939Z,3.50
2023-03-08T04:16:29.230Z,3.50
2023-03-08T04:18:59.781Z,3.50
2023-03-08T04:21:27.718Z,3.50
2023-03-08T04:23:55.984Z,3.60
2023-03-08T04:26:24.145Z,3.80
2023-03-08T04:28:51.472Z,3.40
2023-03-08T04:31:21.314Z,3.40
2023-03-08T04:33:48.949Z,3.40
2023-03-08T04:36:17.442Z,3.40
2023-03-08T04:38:45.783Z,3.40
2023-03-08T04:41:13.541Z,3.60
2023-03-08T04:43:47.676Z,4.10
2023-03-08T04:46:16.343Z,4.00
2023-03-08T04:48:43.682Z,4.10
2023-03-08T04:51:13.180Z,3.40
2023-03-08T04:53:41.772Z,3.80
2023-03-08T04:56:09.476Z,3.50
2023-03-08T04:58:37.847Z,3.40
2023-03-08T05:01:18.001Z,3.50
2023-03-08T05:03:46.221Z,3.50
2023-03-08T05:06:16.767Z,3.70
2023-03-08T05:08:44.322Z,4.10
2023-03-08T05:11:18.260Z,3.90
2023-03-08T05:13:45.424Z,3.50
2023-03-08T05:16:12.962Z,3.50
2023-03-08T05:18:40.085Z,4.20
2023-03-08T05:21:13.257Z,3.60
2023-03-08T05:23:40.330Z,4.10
2023-03-08T05:26:09.067Z,3.60
2023-03-08T05:28:39.359Z,3.60
2023-03-08T05:31:19.010Z,3.70
2023-03-08T05:33:51.125Z,3.70
2023-03-08T05:36:19.338Z,3.70
2023-03-08T05:38:46.632Z,3.60
2023-03-08T05:41:16.779Z,4.10
2023-03-08T05:43:44.187Z,3.70
2023-03-08T05:46:17.736Z,3.70
2023-03-08T05:48:45.330Z,3.80
2023-03-08T05:51:15.777Z,3.60
2023-03-08T05:53:43.517Z,3.50
2023-03-08T05:56:14.790Z,4.10
2023-03-08T05:58:43.673Z,3.50
2023-03-08T06:01:21.646Z,3.50
2023-03-08T06:03:52.378Z,3.90
2023-03-08T06:06:24.858Z,3.60
2023-03-08T06:08:52.478Z,3.60
2023-03-08T06:11:20.225Z,4.10
2023-03-08T06:13:47.353Z,3.50
2023-03-08T06:16:15.091Z,3.50
2023-03-08T06:18:42.993Z,4.00
2023-03-08T06:21:15.884Z,3.50
2023-03-08T06:23:43.628Z,3.50
2023-03-08T06:26:11.860Z,3.60
2023-03-08T06:28:43.252Z,3.80
2023-03-08T06:31:16.727Z,3.50
2023-03-08T06:33:44.067Z,3.50
2023-03-08T06:36:20.380Z,3.60
2023-03-08T06:38:48.761Z,3.60
2023-03-08T06:41:18.848Z,3.60
2023-03-08T06:43:46.201Z,3.60
2023-03-08T06:46:19.249Z,4.30
2023-03-08T06:48:49.696Z,3.90
2023-03-08T06:51:17.629Z,4.00
2023-03-08T06:53:45.487Z,3.60
2023-03-08T06:56:15.866Z,3.80
2023-03-08T06:58:43.809Z,3.80
2023-03-08T07:01:11.505Z,3.70
2023-03-08T07:03:38.667Z,3.80
2023-03-08T07:06:09.089Z,3.70
2023-03-08T07:08:37.840Z,3.70
2023-03-08T07:11:07.502Z,3.70
2023-03-08T07:13:35.241Z,3.70
2023-03-08T07:16:11.041Z,3.70
2023-03-08T07:18:38.755Z,3.60
2023-03-08T07:21:06.393Z,4.10
2023-03-08T07:23:33.727Z,3.60
2023-03-08T07:26:04.882Z,3.70
2023-03-08T07:28:31.974Z,3.00
2023-03-08T07:30:59.113Z,2.80
2023-03-08T07:33:26.407Z,2.80
2023-03-08T07:35:53.797Z,2.60
2023-03-08T07:38:21.090Z,2.60
2023-03-08T07:40:56.203Z,2.50
2023-03-08T07:43:24.208Z,3.00
2023-03-08T07:45:51.258Z,2.70
2023-03-08T07:48:18.390Z,2.70
2023-03-08T07:50:45.449Z,2.40
2023-03-08T07:53:12.491Z,2.50
2023-03-08T07:55:39.498Z,2.40
2023-03-08T07:58:06.775Z,2.30
2023-03-08T08:00:33.788Z,2.30
2023-03-08T08:03:00.882Z,2.20
2023-03-08T08:05:27.906Z,2.10
2023-03-08T08:07:55.915Z,2.20
2023-03-08T08:10:25.875Z,2.20
2023-03-08T08:12:52.834Z,2.10
2023-03-08T08:15:19.851Z,2.20
2023-03-08T08:17:47.143Z,2.00
2023-03-08T08:20:14.792Z,2.10
2023-03-08T08:22:48.291Z,2.10
2023-03-08T08:25:15.360Z,2.10
2023-03-08T08:27:42.352Z,2.10
2023-03-08T08:30:11.449Z,2.10
2023-03-08T08:32:38.739Z,2.10
2023-03-08T08:35:08.631Z,2.20
2023-03-08T08:37:37.430Z,2.00
2023-03-08T08:40:08.054Z,2.00
2023-03-08T08:42:35.208Z,2.10
2023-03-08T08:45:02.209Z,2.10
2023-03-08T08:47:30.153Z,2.20
2023-03-08T08:49:57.225Z,2.20
2023-03-08T08:52:24.352Z,2.20
2023-03-08T08:54:53.330Z,2.20
2023-03-08T08:57:20.312Z,2.20
2023-03-08T08:59:47.891Z,2.20
2023-03-08T09:02:15.160Z,2.30
2023-03-08T09:04:42.776Z,2.30
2023-03-08T09:07:09.815Z,2.60
2023-03-08T09:09:36.795Z,2.20
2023-03-08T09:12:04.264Z,2.50
2023-03-08T09:14:31.196Z,2.20
2023-03-08T09:16:58.289Z,2.30
2023-03-08T09:19:25.416Z,2.30
2023-03-08T09:21:52.504Z,2.60
2023-03-08T09:24:19.523Z,2.40
2023-03-08T09:26:46.934Z,2.50
2023-03-08T09:29:13.926Z,2.50
2023-03-08T09:31:42.702Z,2.70
2023-03-08T09:34:11.733Z,2.60
2023-03-08T09:36:39.919Z,2.70
2023-03-08T09:39:09.577Z,2.60
2023-03-08T09:41:49.901Z,2.40
2023-03-08T09:44:55.871Z,2.20
2023-03-08T09:48:08.493Z,2.20
2023-03-08T09:50:52.856Z,1.90
2023-03-08T09:53:32.898Z,1.90
2023-03-08T09:56:20.405Z,1.80
2023-03-08T09:59:33.563Z,1.80
2023-03-08T10:02:21.152Z,1.80
2023-03-08T10:05:18.820Z,2.00
2023-03-08T10:08:01.563Z,2.00
2023-03-08T10:10:39.126Z,2.20
2023-03-08T10:14:09.158Z,2.10
2023-03-08T10:16:44.693Z,2.30
2023-03-08T10:19:39.016Z,2.50
2023-03-08T10:22:25.392Z,2.60
2023-03-08T10:25:24.177Z,2.70
2023-03-08T10:27:56.317Z,2.80
2023-03-08T10:30:37.504Z,3.00
2023-03-08T10:33:11.734Z,2.80
2023-03-08T10:35:53.135Z,3.00
2023-03-08T10:38:20.246Z,3.30
2023-03-08T10:40:47.280Z,3.10
2023-03-08T10:43:38.455Z,3.30
2023-03-08T10:46:22.054Z,3.30
2023-03-08T10:48:49.801Z,3.70
2023-03-08T10:51:24.397Z,3.50
2023-03-08T10:53:59.716Z,3.60
2023-03-08T10:56:40.284Z,3.60
2023-03-08T10:59:19.735Z,3.60
2023-03-08T11:01:55.004Z,3.70
2023-03-08T11:04:25.191Z,3.70
2023-03-08T11:06:52.522Z,3.80
2023-03-08T11:09:31.882Z,3.90
2023-03-08T11:12:00.555Z,4.00
2023-03-08T11:14:30.150Z,4.00
2023-03-08T11:17:23.999Z,4.10
2023-03-08T11:20:20.228Z,4.20
2023-03-08T11:23:21.860Z,4.30
2023-03-08T11:26:16.735Z,4.40
2023-03-08T11:29:05.896Z,4.50
2023-03-08T11:31:46.122Z,4.70
2023-03-08T11:34:41.848Z,4.60
2023-03-08T11:37:29.976Z,4.70
2023-03-08T11:40:22.290Z,4.80
2023-03-08T11:43:22.998Z,4.80
2023-03-08T11:45:52.765Z,4.80
2023-03-08T11:48:47.511Z,4.80
2023-03-08T11:51:22.601Z,5.00
2023-03-08T11:54:19.678Z,5.00
2023-03-08T11:57:09.718Z,5.10
2023-03-08T11:59:56.926Z,5.20
2023-03-08T12:02:30.133Z,5.30
2023-03-08T12:05:20.737Z,5.40
2023-03-08T12:08:26.443Z,5.60
2023-03-08T12:11:05.674Z,5.80
2023-03-08T12:13:39.281Z,5.90
2023-03-08T12:16:43.645Z,6.00
2023-03-08T12:19:13.879Z,6.10
2023-03-08T12:22:25.682Z,6.20
2023-03-08T12:25:16.400Z,6.50
2023-03-08T12:28:20.978Z,6.80
2023-03-08T12:31:27.430Z,7.50
2023-03-08T12:33:58.399Z,9.10
2023-03-08T12:36:41.597Z,9.60
2023-03-08T12:39:27.249Z,9.80
2023-03-08T12:42:10.122Z,9.90
2023-03-08T12:44:39.142Z,10.30
2023-03-08T12:47:12.308Z,10.50
2023-03-08T12:49:53.735Z,10.60
2023-03-08T12:52:20.694Z,11.10
2023-03-08T12:55:02.806Z,11.20
2023-03-08T12:57:42.991Z,11.00
2023-03-08T13:00:36.327Z,11.00
2023-03-08T13:03:12.473Z,11.20
2023-03-08T13:05:45.351Z,11.50
2023-03-08T13:08:16.345Z,11.30
2023-03-08T13:10:52.080Z,11.20
2023-03-08T13:13:43.688Z,11.20
2023-03-08T13:16:38.494Z,11.30
2023-03-08T13:19:14.985Z,11.20
2023-03-08T13:22:09.028Z,11.20
2023-03-08T13:24:41.825Z,11.30
2023-03-08T13:27:30.354Z,11.30
2023-03-08T13:30:14.473Z,11.30
2023-03-08T13:32:41.704Z,11.20
2023-03-08T13:35:16.536Z,11.20
2023-03-08T13:37:43.835Z,11.00
2023-03-08T13:40:22.263Z,10.80
2023-03-08T13:43:05.626Z,10.60
2023-03-08T13:45:32.706Z,10.50
2023-03-08T13:48:03.870Z,10.30
2023-03-08T13:50:35.895Z,10.10
2023-03-08T13:53:09.553Z,10.00
2023-03-08T13:55:43.030Z,10.00
2023-03-08T13:58:42.309Z,9.90
2023-03-08T14:01:19.670Z,9.90
2023-03-08T14:03:47.391Z,9.90
2023-03-08T14:06:33.722Z,9.90
2023-03-08T14:09:03.877Z,9.90
2023-03-08T14:11:38.199Z,10.00
2023-03-08T14:14:19.206Z,10.10
2023-03-08T14:16:47.414Z,10.20
2023-03-08T14:19:36.177Z,10.20
2023-03-08T14:22:38.090Z,10.20
2023-03-08T14:25:06.298Z,10.20
2023-03-08T14:27:38.387Z,10.30
2023-03-08T14:30:24.782Z,10.30
2023-03-08T14:33:19.300Z,10.30
2023-03-08T14:35:57.789Z,10.30
2023-03-08T14:38:29.679Z,10.10
2023-03-08T14:41:03.896Z,10.20
2023-03-08T14:43:31.058Z,10.20
2023-03-08T14:46:09.402Z,10.30
2023-03-08T14:48:38.527Z,10.40
2023-03-08T14:51:42.480Z,10.50
2023-03-08T14:54:36.675Z,10.40
2023-03-08T14:57:23.312Z,10.40
2023-03-08T14:59:50.748Z,10.50
2023-03-08T15:02:18.377Z,10.50
2023-03-08T15:04:46.545Z,10.60
2023-03-08T15:07:35.448Z,10.60
2023-03-08T15:10:06.023Z,10.70
2023-03-08T15:12:33.296Z,10.80
2023-03-08T15:15:00.532Z,11.20
2023-03-08T15:17:27.981Z,11.10
2023-03-08T15:19:56.172Z,11.30
2023-03-08T15:24:52.071Z,11.40
2023-03-08T15:29:46.735Z,11.40
2023-03-08T15:32:14.033Z,11.40
2023-03-08T15:34:50.492Z,11.30
2023-03-08T15:37:17.689Z,11.30
2023-03-08T15:39:45.707Z,11.30
2023-03-08T15:42:16.535Z,11.20
2023-03-08T15:47:12.018Z,11.00
2023-03-08T15:49:39.321Z,10.90
2023-03-08T15:52:08.580Z,10.80
2023-03-08T15:54:36.377Z,10.70
2023-03-08T15:57:04.116Z,10.60
2023-03-08T16:01:59.491Z,10.50
2023-03-08T16:09:24.578Z,10.50
2023-03-08T16:11:52.489Z,10.60
2023-03-08T16:14:19.733Z,10.50
2023-03-08T16:16:47.164Z,10.60
2023-03-08T16:19:14.494Z,10.50
2023-03-08T16:21:42.124Z,10.50
2023-03-08T16:24:11.179Z,10.40
2023-03-08T16:26:41.851Z,10.20
2023-03-08T16:29:09.982Z,10.20
2023-03-08T16:31:37.331Z,10.20
2023-03-08T16:34:06.605Z,10.10
2023-03-08T16:36:34.103Z,10.20
2023-03-08T16:39:01.643Z,10.20
2023-03-08T16:41:30.298Z,10.10
2023-03-08T16:43:59.740Z,10.10
2023-03-08T16:46:26.961Z,10.00
2023-03-08T16:48:56.315Z,10.00
2023-03-08T16:51:27.264Z,10.00
2023-03-08T16:53:56.945Z,9.90
2023-03-08T16:56:29.699Z,9.80
2023-03-08T16:59:02.235Z,9.80
2023-03-08T17:01:31.509Z,9.60
2023-03-08T17:03:59.725Z,9.50
2023-03-08T17:06:30.719Z,9.30
2023-03-08T17:08:59.990Z,9.20
2023-03-08T17:11:31.650Z,9.20
2023-03-08T17:14:04.512Z,9.20
2023-03-08T17:16:34.540Z,8.40
2023-03-08T17:19:04.579Z,9.10
2023-03-08T17:21:32.594Z,9.10
2023-03-08T17:24:00.459Z,9.10
2023-03-08T17:26:30.393Z,9.10
2023-03-08T17:29:38.131Z,9.10
2023-03-08T17:32:05.882Z,9.10
2023-03-08T17:34:33.128Z,9.10
2023-03-08T17:37:00.363Z,9.00
2023-03-08T17:39:27.542Z,9.00
2023-03-08T17:41:54.553Z,9.10
2023-03-08T17:44:21.545Z,9.00
2023-03-08T17:46:48.519Z,9.00
2023-03-08T17:49:23.171Z,9.00
2023-03-08T17:51:52.324Z,9.10
2023-03-08T17:54:20.372Z,9.00
2023-03-08T17:56:47.378Z,9.00
2023-03-08T17:59:16.705Z,9.00
2023-03-08T18:01:44.550Z,8.90
2023-03-08T18:04:11.973Z,8.90
2023-03-08T18:06:43.534Z,8.90
2023-03-08T18:09:15.694Z,8.80
2023-03-08T18:11:43.051Z,8.80
2023-03-08T18:14:13.456Z,8.70
2023-03-08T18:16:40.886Z,8.60
2023-03-08T18:19:08.188Z,8.60
2023-03-08T18:21:38.821Z,8.60
2023-03-08T18:24:07.472Z,8.60
2023-03-08T18:26:34.480Z,8.60
2023-03-08T18:29:01.816Z,8.70
2023-03-08T18:31:31.059Z,8.70
2023-03-08T18:33:58.168Z,8.70
2023-03-08T18:36:25.372Z,8.70
2023-03-08T18:38:52.589Z,8.80
2023-03-08T18:41:28.021Z,9.10
2023-03-08T18:43:56.975Z,9.30
2023-03-08T18:46:29.730Z,9.30
2023-03-08T18:49:01.044Z,9.40
2023-03-08T18:51:30.115Z,9.40
2023-03-08T18:53:58.380Z,9.40
2023-03-08T18:57:18.242Z,9.40
2023-03-08T18:59:45.603Z,9.40
2023-03-08T19:02:22.060Z,9.40
2023-03-08T19:04:49.186Z,9.30
2023-03-08T19:07:16.287Z,9.30
2023-03-08T19:12:13.115Z,9.40
2023-03-08T19:14:40.855Z,9.40
2023-03-08T19:17:07.980Z,9.30
2023-03-08T19:19:35.112Z,9.30
2023-03-08T19:22:06.047Z,9.20
2023-03-08T19:24:38.068Z,8.90
2023-03-08T19:27:07.653Z,9.10
2023-03-08T19:29:36.174Z,9.10
2023-03-08T19:32:07.819Z,9.10
2023-03-08T19:34:38.708Z,9.10
2023-03-08T19:37:07.466Z,9.10
2023-03-08T19:39:39.992Z,9.20
2023-03-08T19:42:17.832Z,9.20
2023-03-08T19:44:50.677Z,9.10
2023-03-08T19:47:20.275Z,9.10
2023-03-08T19:49:51.211Z,9.00
2023-03-08T19:52:21.526Z,9.00
2023-03-08T19:54:49.148Z,8.70
2023-03-08T19:57:18.894Z,8.90
2023-03-08T19:59:46.260Z,8.80
2023-03-08T20:02:40.023Z,8.70
2023-03-08T20:05:07.960Z,8.60
2023-03-08T20:07:35.602Z,8.60
2023-03-08T20:10:15.431Z,8.60
2023-03-08T20:12:46.656Z,8.50
2023-03-08T20:15:13.940Z,8.50
2023-03-08T20:17:41.292Z,8.50
2023-03-08T20:20:14.837Z,8.40
2023-03-08T20:22:42.419Z,8.40
2023-03-08T20:25:13.679Z,8.40
2023-03-08T20:27:42.413Z,8.40
2023-03-08T20:30:11.766Z,8.40
2023-03-08T20:32:39.077Z,8.30
2023-03-08T20:35:08.487Z,8.30
2023-03-08T20:37:37.942Z,8.30
2023-03-08T20:40:09.779Z,8.30
2023-03-08T20:42:43.702Z,8.30
2023-03-08T20:45:13.110Z,8.30
2023-03-08T20:47:40.876Z,8.40
2023-03-08T20:50:08.541Z,8.40
2023-03-08T20:52:43.206Z,8.40
2023-03-08T20:55:11.909Z,8.40
2023-03-08T20:57:38.998Z,8.40
2023-03-08T21:00:09.283Z,8.40
2023-03-08T21:02:40.175Z,8.40
2023-03-08T21:05:08.170Z,8.50
2023-03-08T21:07:35.402Z,8.50
2023-03-08T21:10:02.704Z,8.50
2023-03-08T21:12:29.726Z,8.50
2023-03-08T21:14:59.821Z,8.50
2023-03-08T21:17:26.957Z,8.60
2023-03-08T21:19:54.595Z,8.60
2023-03-08T21:22:22.095Z,8.50
2023-03-08T21:24:49.347Z,8.60
2023-03-08T21:27:17.504Z,8.60
2023-03-08T21:29:44.700Z,8.60
2023-03-08T21:32:12.506Z,8.70
2023-03-08T21:34:40.251Z,8.70
2023-03-08T21:39:34.834Z,8.70
2023-03-08T21:42:01.909Z,8.70
2023-03-08T21:44:31.833Z,8.70
2023-03-08T21:46:59.232Z,8.90
2023-03-08T21:49:29.234Z,8.80
2023-03-08T21:51:58.425Z,8.80
2023-03-08T21:54:28.104Z,8.90
2023-03-08T21:56:55.304Z,8.90
2023-03-08T21:59:26.883Z,8.90
2023-03-08T22:01:58.427Z,9.00
2023-03-08T22:04:26.899Z,9.00
2023-03-08T22:07:16.293Z,9.10
2023-03-08T22:09:55.875Z,9.10
2023-03-08T22:12:33.481Z,9.10
2023-03-08T22:15:19.865Z,9.10
2023-03-08T22:18:02.611Z,9.20
2023-03-08T22:20:38.472Z,9.20
2023-03-08T22:23:05.620Z,9.20
2023-03-08T22:25:32.627Z,9.20
2023-03-08T22:27:59.608Z,9.20
2023-03-08T22:30:26.827Z,9.20
2023-03-08T22:32:54.826Z,9.20
2023-03-08T22:35:22.464Z,9.30
2023-03-08T22:37:50.067Z,9.30
2023-03-08T22:40:18.982Z,9.30
2023-03-08T22:42:47.208Z,9.40
2023-03-08T22:45:14.856Z,9.40
2023-03-08T22:47:42.127Z,9.50
2023-03-08T22:50:10.847Z,9.60
2023-03-08T22:52:39.052Z,9.60
2023-03-08T22:55:06.661Z,9.60
2023-03-08T22:57:37.623Z,9.60
2023-03-08T23:00:14.389Z,9.60
2023-03-08T23:02:42.983Z,9.60
2023-03-08T23:05:16.571Z,9.60
2023-03-08T23:07:43.663Z,9.50
2023-03-08T23:10:12.277Z,9.50
2023-03-08T23:12:40.042Z,9.50
2023-03-08T23:15:08.307Z,9.50
2023-03-08T23:17:36.160Z,9.50
2023-03-08T23:20:05.726Z,9.50
2023-03-08T23:22:33.024Z,9.50
2023-03-08T23:25:00.125Z,9.50
2023-03-08T23:27:27.264Z,9.50
2023-03-08T23:29:54.284Z,9.50
2023-03-08T23:32:21.488Z,9.60
2023-03-08T23:34:48.783Z,9.70
2023-03-08T23:37:15.760Z,9.70
2023-03-08T23:39:42.773Z,9.80
2023-03-08T23:42:09.880Z,9.70
2023-03-08T23:44:38.639Z,9.70
2023-03-08T23:47:06.174Z,9.60
2023-03-08T23:49:33.431Z,9.50
2023-03-08T23:52:00.544Z,9.50
2023-03-08T23:54:27.681Z,9.40
2023-03-08T23:56:54.735Z,9.40
2023-03-08T23:59:24.266Z,9.40
